Time;durP1;ratioP1;P1;durP2;ratioP2;P2;SDS_P1;SDS_P2;PMS_P1;PMS_P2;Temp;Humidity;BMP_temperature;BMP_pressure;BME280_temperature;BME280_humidity;BME280_pressure;Samples;Min_cycle;Max_cycle;Signal;HPM_P1;HPM_P2
2022/08/07 00:01:25;;;;;;;8.60;5.07;;;;;;;16.43;59.41;101687.83;5250777;56;1141334;-64
2022/08/07 00:06:30;;;;;;;13.37;5.17;;;;;;;16.40;59.08;101688.08;5333442;55;1139185;-63
2022/08/07 00:11:36;;;;;;;10.23;6.37;;;;;;;16.23;58.97;101687.78;5336303;55;1141137;-65
2022/08/07 00:16:42;;;;;;;5.43;2.80;;;;;;;15.96;58.89;101692.23;5331378;55;1141338;-63
2022/08/07 00:21:48;;;;;;;4.97;2.70;;;;;;;15.69;59.13;101699.33;5331555;55;1139009;-65
2022/08/07 00:26:53;;;;;;;12.20;2.93;;;;;;;15.47;59.17;101697.48;5424114;54;1139009;-65
2022/08/07 00:32:00;;;;;;;5.00;2.97;;;;;;;15.46;60.01;101701.11;5243085;55;1141249;-65
2022/08/07 00:37:06;;;;;;;6.10;2.97;;;;;;;15.58;60.04;101702.86;5242039;56;1138970;-66
2022/08/07 00:42:11;;;;;;;9.73;3.37;;;;;;;15.54;59.65;101701.86;5358093;54;1138286;-65
2022/08/07 00:47:18;;;;;;;7.57;3.23;;;;;;;15.32;59.72;101701.36;5331649;55;1139275;-65
2022/08/07 00:52:24;;;;;;;7.97;3.17;;;;;;;15.11;60.03;101702.09;5391024;54;1139046;-64
2022/08/07 00:57:30;;;;;;;5.87;3.30;;;;;;;14.92;60.48;101699.14;5392009;55;1139090;-65
2022/08/07 01:02:36;;;;;;;5.97;3.20;;;;;;;14.78;61.03;101705.53;5382796;54;1139250;-63
2022/08/07 01:07:42;;;;;;;7.27;3.20;;;;;;;14.76;61.56;101698.14;5330030;55;1139340;-66
2022/08/07 01:12:50;;;;;;;10.83;3.77;;;;;;;14.68;61.68;101699.67;5330779;55;1139112;-65
2022/08/07 01:17:56;;;;;;;7.77;2.90;;;;;;;14.59;61.91;101698.58;5331751;55;1141129;-64
2022/08/07 01:23:03;;;;;;;5.73;2.80;;;;;;;14.41;61.81;101703.95;5376022;54;1139018;-64
2022/08/07 01:28:09;;;;;;;6.80;2.43;;;;;;;14.28;62.21;101692.48;5379205;54;1139140;-64
2022/08/07 01:33:15;;;;;;;11.20;3.43;;;;;;;14.40;62.78;101698.25;5332659;54;1138978;-64
2022/08/07 01:38:24;;;;;;;2.63;2.37;;;;;;;14.40;62.57;101704.42;5332620;55;1140905;-65
2022/08/07 01:43:33;;;;;;;9.33;2.63;;;;;;;14.11;62.36;101697.72;5332609;55;1139039;-63
2022/08/07 01:48:41;;;;;;;6.97;2.87;;;;;;;13.98;63.43;101695.59;5332671;55;1137239;-64
2022/08/07 01:53:59;;;;;;;21.20;6.43;;;;;;;14.18;64.31;101698.13;5327626;55;1137452;-65
2022/08/07 01:59:31;;;;;;;23.27;8.17;;;;;;;14.32;64.44;101695.30;5309416;55;1138909;-64
2022/08/07 02:04:54;;;;;;;24.63;9.40;;;;;;;14.31;64.50;101695.78;5273164;55;1139000;-64
2022/08/07 02:10:03;;;;;;;26.07;9.87;;;;;;;14.30;64.67;101704.72;5301275;55;1138947;-64
2022/08/07 02:15:12;;;;;;;23.33;9.63;;;;;;;14.40;64.69;101697.77;5309357;55;1139042;-65
2022/08/07 02:20:21;;;;;;;25.17;9.37;;;;;;;14.49;64.85;101702.05;5263927;55;1137043;-64
2022/08/07 02:25:28;;;;;;;25.33;10.53;;;;;;;14.37;64.60;101704.61;5300835;55;1141016;-65
2022/08/07 02:30:40;;;;;;;24.40;10.17;;;;;;;14.41;64.49;101704.80;5303493;55;1143177;-66
2022/08/07 02:35:48;;;;;;;26.97;10.17;;;;;;;14.49;64.65;101697.58;5275625;55;1143101;-65
2022/08/07 02:40:57;;;;;;;24.60;9.03;;;;;;;14.48;64.29;101697.69;5308012;55;1143170;-63
2022/08/07 02:46:06;;;;;;;23.10;10.50;;;;;;;14.43;64.87;101698.88;5308939;55;1141271;-64
2022/08/07 02:51:18;;;;;;;37.27;13.07;;;;;;;14.37;65.16;101701.10;5308016;55;1143214;-65
2022/08/07 02:56:29;;;;;;;21.17;8.67;;;;;;;14.23;65.20;101706.12;5370494;54;1143038;-64
2022/08/07 03:01:37;;;;;;;37.37;15.17;;;;;;;14.24;66.00;101707.82;5413368;54;1141132;-64
2022/08/07 03:06:47;;;;;;;43.78;16.37;;;;;;;14.18;65.79;101707.45;5390220;54;1143155;-64
2022/08/07 03:11:53;;;;;;;29.23;12.60;;;;;;;14.04;65.82;101707.98;5285352;55;1143154;-65
2022/08/07 03:17:00;;;;;;;38.40;13.67;;;;;;;13.96;66.32;101718.80;5415821;54;1143152;-64
2022/08/07 03:22:08;;;;;;;29.77;11.40;;;;;;;13.83;66.35;101721.50;5211784;56;1143215;-64
2022/08/07 03:27:15;;;;;;;27.70;10.00;;;;;;;13.82;66.63;101718.47;5423328;54;1143430;-65
2022/08/07 03:32:28;;;;;;;19.00;7.83;;;;;;;13.90;67.26;101705.97;5241843;56;1143277;-64
2022/08/07 03:37:37;;;;;;;28.53;9.40;;;;;;;13.88;67.24;101707.40;5387111;54;1141117;-64
2022/08/07 03:42:43;;;;;;;16.17;7.43;;;;;;;13.88;67.19;101713.20;5330946;55;1141106;-64
2022/08/07 03:47:51;;;;;;;18.57;7.07;;;;;;;13.82;67.44;101713.15;5357642;54;1141001;-65
2022/08/07 03:53:00;;;;;;;16.40;6.23;;;;;;;13.68;67.62;101712.81;5390299;55;1141121;-65
2022/08/07 03:58:06;;;;;;;21.20;7.43;;;;;;;13.50;67.83;101710.13;5264854;55;1141284;-65
2022/08/07 04:03:14;;;;;;;12.70;4.93;;;;;;;13.52;68.31;101713.53;5156184;56;1141117;-64
2022/08/07 04:08:21;;;;;;;12.57;4.40;;;;;;;13.54;68.32;101720.08;5194113;56;1141149;-63
2022/08/07 04:13:28;;;;;;;6.00;2.93;;;;;;;13.44;69.51;101719.89;5242353;56;1141152;-64
2022/08/07 04:18:34;;;;;;;13.80;2.40;;;;;;;13.53;70.20;101721.03;5241619;56;1139072;-64
2022/08/07 04:23:40;;;;;;;13.80;2.80;;;;;;;13.41;70.91;101724.56;5275721;55;1141301;-65
2022/08/07 04:28:46;;;;;;;9.40;3.40;;;;;;;13.18;71.37;101729.66;5153878;57;1141373;-66
2022/08/07 04:33:52;;;;;;;6.27;2.87;;;;;;;13.00;72.91;101726.90;5155804;56;1139038;-64
2022/08/07 04:38:59;;;;;;;5.07;2.60;;;;;;;12.78;74.33;101724.87;5153950;56;1139094;-64
2022/08/07 04:44:05;;;;;;;3.63;2.63;;;;;;;12.64;75.29;101725.80;5179349;56;1138949;-65
2022/08/07 04:49:19;;;;;;;6.58;2.98;;;;;;;12.62;76.41;101726.86;5170276;56;1139252;-65
2022/08/07 04:54:54;;;;;;;5.47;2.85;;;;;;;12.67;77.07;101726.08;5302621;55;1136868;-64
2022/08/07 05:00:13;;;;;;;4.57;3.03;;;;;;;12.87;77.62;101734.86;5280667;55;1137060;-65
2022/08/07 05:05:31;;;;;;;4.80;2.10;;;;;;;13.06;78.24;101734.45;5259916;55;1137078;-64
2022/08/07 05:10:47;;;;;;;4.53;2.43;;;;;;;13.16;78.92;101738.20;5308629;55;1136948;-63
2022/08/07 05:15:54;;;;;;;6.13;2.60;;;;;;;13.23;79.53;101737.31;5345243;54;1134860;-62
2022/08/07 05:21:08;;;;;;;68.00;36.03;;;;;;;13.30;79.94;101735.44;5318101;55;21119;-64
2022/08/07 05:26:21;;;;;;;10.58;4.80;;;;;;;13.48;80.33;101736.44;5255985;55;1139006;-66
2022/08/07 05:31:32;;;;;;;8.77;4.57;;;;;;;13.82;80.77;101740.22;5300275;54;1141136;-65
2022/08/07 05:36:48;;;;;;;6.97;4.60;;;;;;;14.06;80.34;101747.75;5348952;54;1139360;-66
2022/08/07 05:41:59;;;;;;;13.90;5.07;;;;;;;14.39;80.36;101739.10;5313696;54;1139041;-65
2022/08/07 05:47:06;;;;;;;8.90;4.50;;;;;;;14.68;79.56;101733.81;5277909;54;1140983;-63
2022/08/07 05:52:12;;;;;;;6.90;3.10;;;;;;;14.97;79.03;101738.77;5268962;55;1139044;-62
2022/08/07 05:57:20;;;;;;;7.73;3.60;;;;;;;15.24;78.71;101739.30;5244151;55;1139015;-65
2022/08/07 06:02:29;;;;;;;3.03;2.50;;;;;;;15.49;78.51;101732.88;5375270;54;1139079;-65
2022/08/07 06:07:36;;;;;;;3.03;1.30;;;;;;;15.76;77.32;101733.86;5348255;54;1139022;-64
2022/08/07 06:12:42;;;;;;;11.07;2.07;;;;;;;16.00;75.22;101741.23;5313071;54;1139457;-63
2022/08/07 06:17:49;;;;;;;6.13;1.67;;;;;;;16.13;74.33;101735.27;5300154;54;1141297;-63
2022/08/07 06:22:56;;;;;;;2.87;1.73;;;;;;;16.37;74.33;101732.88;5343748;54;1139582;-64
2022/08/07 06:28:09;;;;;;;4.16;2.02;;;;;;;16.61;73.38;101732.67;5250769;55;1138940;-65
2022/08/07 06:33:16;;;;;;;3.47;1.62;;;;;;;16.85;71.59;101732.81;5423905;54;1139104;-64
2022/08/07 06:38:23;;;;;;;1.30;1.20;;;;;;;17.21;71.57;101734.66;5340152;55;1139043;-65
2022/08/07 06:43:34;;;;;;;3.40;1.47;;;;;;;17.48;70.08;101739.44;5393374;54;1139059;-65
2022/08/07 06:48:45;;;;;;;5.83;1.30;;;;;;;17.76;69.53;101737.88;5213881;56;1139469;-65
2022/08/07 06:53:56;;;;;;;1.70;0.90;;;;;;;18.06;68.03;101743.18;5320625;55;1139160;-65
2022/08/07 06:59:02;;;;;;;1.90;1.73;;;;;;;18.36;65.00;101741.39;5279271;55;1139286;-63
2022/08/07 07:04:09;;;;;;;2.15;1.50;;;;;;;18.57;65.72;101738.95;5318649;55;1139006;-64
2022/08/07 07:09:28;;;;;;;4.17;1.50;;;;;;;18.85;64.24;101739.09;5179006;56;1138947;-64
2022/08/07 07:15:14;;;;;;;2.27;1.70;;;;;;;19.10;62.55;101742.99;5357647;54;1139070;-66
2022/08/07 07:20:27;;;;;;;4.90;1.60;;;;;;;19.13;61.83;101740.03;5362741;54;1136975;-64
2022/08/07 07:25:35;;;;;;;3.37;1.50;;;;;;;19.21;61.94;101735.66;5305921;55;1137189;-67
2022/08/07 07:30:45;;;;;;;6.20;1.60;;;;;;;19.21;61.94;101735.66;5362982;54;1137084;-65
2022/08/07 07:35:53;;;;;;;3.20;1.70;;;;;;;19.47;60.45;101747.06;5280913;55;1136897;-66
2022/08/07 07:41:04;;;;;;;3.50;1.75;;;;;;;19.44;58.92;101730.76;5380802;54;1136995;-66
2022/08/07 07:46:11;;;;;;;6.20;1.35;;;;;;;19.66;60.98;101722.38;5259940;55;1136953;-65
2022/08/07 07:51:17;;;;;;;7.65;1.80;;;;;;;20.01;60.75;101726.97;5383500;54;1136922;-64
2022/08/07 07:56:26;;;;;;;5.47;1.52;;;;;;;20.43;58.54;101728.28;5199232;56;1134856;-64
2022/08/07 08:01:34;;;;;;;1.14;1.10;;;;;;;20.74;58.41;101722.00;5202766;56;1134779;-65
2022/08/07 08:06:46;;;;;;;1.50;1.45;;;;;;;21.01;57.18;101730.78;5350178;54;1139182;-65
2022/08/07 08:11:54;;;;;;;3.33;2.90;;;;;;;21.16;56.25;101727.52;5198809;56;1139001;-65
2022/08/07 08:17:02;;;;;;;3.12;1.50;;;;;;;21.26;56.59;101724.23;5342604;54;1139076;-66
2022/08/07 08:27:37;;;;;;;4.08;1.40;;;;;;;21.69;55.66;101715.22;5243495;55;1139270;-66
2022/08/07 08:32:52;;;;;;;3.83;1.77;;;;;;;21.37;52.36;101711.37;5330654;55;1138987;-65
2022/08/07 08:38:02;;;;;;;2.40;1.77;;;;;;;21.12;52.32;101705.95;5330843;54;1139030;-66
2022/08/07 08:43:39;;;;;;;2.27;1.40;;;;;;;20.82;51.72;101708.61;5243005;56;1139568;-65
2022/08/07 08:49:01;;;;;;;2.83;1.60;;;;;;;20.70;52.62;101708.02;5356452;54;1139007;-64
2022/08/07 08:54:26;;;;;;;1.77;1.17;;;;;;;20.51;52.98;101708.19;5244165;55;1139067;-65
2022/08/07 08:59:36;;;;;;;2.50;1.47;;;;;;;20.36;52.58;101715.45;5302664;55;1138969;-65
2022/08/07 09:04:47;;;;;;;4.42;1.85;;;;;;;20.50;52.95;101711.87;5340714;55;1138854;-66
2022/08/07 09:10:03;;;;;;;1.77;1.40;;;;;;;20.82;52.96;101707.27;5340164;55;1138944;-65
2022/08/07 09:15:46;;;;;;;3.55;1.17;;;;;;;21.09;50.65;101708.45;5340626;55;1138958;-65
2022/08/07 09:21:03;;;;;;;3.35;1.35;;;;;;;21.17;50.44;101711.72;5337162;55;1136942;-65
2022/08/07 09:26:40;;;;;;;6.56;1.78;;;;;;;21.10;51.35;101706.11;5297797;55;1137037;-64
2022/08/07 09:32:10;;;;;;;6.53;2.00;;;;;;;21.28;52.25;101705.59;5134474;56;1134860;-64
2022/08/07 09:37:20;;;;;;;7.72;1.30;;;;;;;21.81;50.46;101693.72;5249999;56;1139158;-65
2022/08/07 09:42:58;;;;;;;2.90;1.07;;;;;;;21.89;48.95;101681.60;5183061;55;1138942;-67
2022/08/07 09:48:54;;;;;;;2.08;1.02;;;;;;;22.30;48.64;101677.69;5166695;56;1138995;-66
2022/08/07 09:54:02;;;;;;;1.62;1.27;;;;;;;22.56;47.50;101672.97;5166749;56;1139035;-65
2022/08/07 09:59:43;;;;;;;4.20;0.90;;;;;;;22.60;46.05;101663.53;5166592;56;1139011;-64
2022/08/07 10:05:15;;;;;;;0.95;0.90;;;;;;;22.87;46.34;101663.70;5135405;56;1139005;-65
2022/08/07 10:10:47;;;;;;;5.43;1.10;;;;;;;23.34;45.14;101650.23;5167127;56;1136939;-65
2022/08/07 10:16:32;;;;;;;12.18;3.50;;;;;;;23.25;42.22;101647.22;5166446;56;1137161;-66
2022/08/07 10:22:03;;;;;;;7.22;1.77;;;;;;;23.33;45.97;101643.16;5166608;56;1138970;-66
2022/08/07 10:27:29;;;;;;;1.15;1.02;;;;;;;23.89;45.41;101635.80;5175406;55;1138997;-65
2022/08/07 10:33:11;;;;;;;5.60;1.40;;;;;;;24.12;42.20;101632.60;5384684;54;1138896;-67
2022/08/07 10:38:54;;;;;;;3.60;1.07;;;;;;;24.25;42.92;101623.07;5231322;56;1139270;-67
2022/08/07 10:44:25;;;;;;;2.50;1.02;;;;;;;24.42;40.66;101615.16;5250061;56;1139034;-66
2022/08/07 10:49:40;;;;;;;5.08;1.07;;;;;;;24.49;40.20;101610.67;5305372;55;1139309;-66
2022/08/07 10:54:59;;;;;;;2.98;1.05;;;;;;;24.44;39.44;101604.45;5320448;55;1139316;-65
2022/08/07 11:00:12;;;;;;;2.83;1.17;;;;;;;24.39;39.69;101601.99;5320187;55;1138869;-65
2022/08/07 11:05:47;;;;;;;4.95;1.02;;;;;;;24.58;37.72;101596.58;5320363;55;1138966;-65
2022/08/07 11:11:03;;;;;;;3.35;1.40;;;;;;;24.64;39.31;101595.82;5320463;55;1137117;-65
2022/08/07 11:16:21;;;;;;;2.05;1.35;;;;;;;24.56;40.28;101593.21;5318443;55;1137129;-65
2022/08/07 11:21:55;;;;;;;3.40;1.15;;;;;;;24.57;40.76;101584.92;5318366;55;1136975;-66
2022/08/07 11:27:17;;;;;;;6.72;1.67;;;;;;;24.23;41.08;101584.53;5319941;55;1137176;-67
2022/08/07 11:32:29;;;;;;;2.62;1.30;;;;;;;24.06;41.21;101579.25;5387279;54;1139053;-65
2022/08/07 11:37:58;;;;;;;2.87;1.15;;;;;;;24.12;41.27;101581.25;5246930;56;1139029;-66
2022/08/07 11:43:20;;;;;;;2.85;1.37;;;;;;;23.99;41.87;101574.23;5164067;57;1138487;-66
2022/08/07 11:49:00;;;;;;;8.65;1.62;;;;;;;23.95;39.87;101562.63;5331362;55;1139090;-66
2022/08/07 11:54:46;;;;;;;3.40;1.32;;;;;;;24.30;42.16;101556.59;5251027;56;1139337;-64
2022/08/07 12:00:10;;;;;;;2.22;0.98;;;;;;;24.88;41.61;101559.04;5250878;56;1139234;-64
2022/08/07 12:05:56;;;;;;;7.42;1.00;;;;;;;25.15;39.90;101558.39;5159543;57;1139356;-66
2022/08/07 12:11:20;;;;;;;1.50;1.15;;;;;;;25.53;39.17;101544.64;5331473;55;1136927;-65
2022/08/07 12:16:29;;;;;;;1.25;0.90;;;;;;;25.64;37.14;101548.77;5251511;56;1137002;-66
2022/08/07 12:22:16;;;;;;;1.10;0.90;;;;;;;25.68;36.60;101541.91;5160016;57;1137104;-66
2022/08/07 12:27:23;;;;;;;1.90;1.00;;;;;;;25.79;35.15;101533.29;5413623;54;1134912;-66
2022/08/07 12:32:52;;;;;;;1.88;0.74;;;;;;;25.82;33.88;101521.52;5203009;56;1139191;-66
2022/08/07 12:38:00;;;;;;;1.80;1.27;;;;;;;25.72;34.29;101524.23;5252685;56;1139438;-66
2022/08/07 12:43:10;;;;;;;4.50;1.20;;;;;;;25.79;34.04;101513.80;5254020;55;1139073;-65
2022/08/07 12:48:49;;;;;;;2.92;1.27;;;;;;;25.64;34.02;101517.61;5253738;55;1139065;-66
2022/08/07 12:54:13;;;;;;;5.15;1.17;;;;;;;25.42;35.41;101518.06;5253656;55;1139013;-67
2022/08/07 12:59:23;;;;;;;1.02;1.02;;;;;;;25.25;36.26;101506.62;5232527;55;1139041;-66
2022/08/07 13:05:16;;;;;;;7.55;1.27;;;;;;;25.27;36.56;101511.86;5253702;55;1139020;-65
2022/08/07 13:10:56;;;;;;;2.10;1.00;;;;;;;25.28;36.49;101507.61;5253557;55;1139553;-65
2022/08/07 13:16:16;;;;;;;4.50;1.30;;;;;;;25.12;36.46;101505.13;5253745;55;1136863;-67
2022/08/07 13:21:26;;;;;;;3.33;1.20;;;;;;;25.15;36.16;101500.69;5253473;55;1136942;-67
2022/08/07 13:27:10;;;;;;;6.87;1.05;;;;;;;25.14;36.95;101496.30;5247657;55;1137011;-64
2022/08/07 13:32:26;;;;;;;2.22;1.05;;;;;;;25.14;37.21;101500.36;5284585;55;1136986;-65
2022/08/07 13:37:47;;;;;;;1.32;1.22;;;;;;;25.03;36.17;101494.09;5340195;55;1137257;-66
2022/08/07 13:42:58;;;;;;;4.00;1.10;;;;;;;24.79;37.22;101497.40;5217510;56;1139008;-65
2022/08/07 13:48:05;;;;;;;17.60;1.40;;;;;;;24.96;37.30;101480.47;5296696;56;1139139;-65
2022/08/07 13:53:18;;;;;;;2.60;1.05;;;;;;;25.04;36.91;101478.19;5120663;57;1141109;-66
2022/08/07 14:03:42;;;;;;;2.70;1.10;;;;;;;25.19;36.99;101470.34;5105417;57;1139310;-65
2022/08/07 14:08:51;;;;;;;4.10;0.95;;;;;;;25.08;35.38;101469.98;5297424;56;1139107;-66
2022/08/07 14:14:04;;;;;;;2.20;1.10;;;;;;;24.75;35.74;101467.67;5153686;56;1139057;-66
2022/08/07 14:19:26;;;;;;;1.77;0.93;;;;;;;24.84;37.43;101457.60;5288909;55;1139113;-64
2022/08/07 14:24:36;;;;;;;5.17;1.45;;;;;;;25.17;35.44;101444.48;5246075;56;1138980;-65
2022/08/07 14:29:48;;;;;;;1.55;1.10;;;;;;;25.20;35.14;101442.24;5366590;54;1138991;-66
2022/08/07 14:34:55;;;;;;;5.60;1.12;;;;;;;25.29;34.31;101437.53;5168811;56;1139265;-65
2022/08/07 14:40:01;;;;;;;2.90;1.30;;;;;;;25.33;35.09;101430.70;5320623;55;1139044;-67
2022/08/07 14:45:11;;;;;;;12.82;3.20;;;;;;;25.51;35.42;101431.61;5249261;56;1139040;-67
2022/08/07 14:50:19;;;;;;;2.27;1.47;;;;;;;25.78;35.67;101427.27;5150794;57;1141164;-65
2022/08/07 14:55:34;;;;;;;2.60;1.20;;;;;;;25.99;33.95;101421.78;5160867;57;1139314;-64
2022/08/07 15:00:43;;;;;;;2.65;1.40;;;;;;;25.78;33.11;101425.91;5299410;55;1139292;-65
2022/08/07 15:05:50;;;;;;;7.17;1.40;;;;;;;25.47;33.58;101419.47;5321057;55;1139186;-65
2022/08/07 15:11:08;;;;;;;1.12;0.78;;;;;;;25.43;33.68;101426.30;5318455;55;1139075;-65
2022/08/07 15:16:15;;;;;;;6.15;1.30;;;;;;;25.36;32.55;101420.00;5244385;55;1139149;-64
2022/08/07 15:21:27;;;;;;;1.15;1.05;;;;;;;25.24;32.49;101415.08;5248971;56;1139182;-67
2022/08/07 15:26:45;;;;;;;4.42;1.32;;;;;;;25.17;32.28;101411.48;5335588;55;1136888;-64
2022/08/07 15:31:52;;;;;;;2.33;1.00;;;;;;;25.16;32.61;101408.45;5314533;55;1137173;-66
2022/08/07 15:37:02;;;;;;;2.10;1.55;;;;;;;25.23;33.01;101405.28;5157605;57;1137107;-64
2022/08/07 15:42:09;;;;;;;3.62;1.30;;;;;;;25.18;32.58;101405.04;5298325;55;1136980;-67
2022/08/07 15:47:17;;;;;;;2.62;1.10;;;;;;;25.16;33.64;101396.78;5316281;55;1136500;-67
2022/08/07 15:52:26;;;;;;;3.25;1.15;;;;;;;25.08;34.37;101400.95;5249768;56;1137013;-66
2022/08/07 15:57:34;;;;;;;1.32;1.00;;;;;;;24.96;35.10;101402.50;5157971;57;1137731;-65
2022/08/07 16:02:43;;;;;;;2.52;1.40;;;;;;;24.90;35.36;101397.32;5160467;57;1136840;-65
2022/08/07 16:07:56;;;;;;;0.90;0.90;;;;;;;24.81;35.36;101393.88;5323468;55;1137027;-63
2022/08/07 16:13:40;;;;;;;6.65;1.50;;;;;;;24.71;35.62;101393.35;5320069;55;1136976;-65
2022/08/07 16:19:07;;;;;;;;;;;;;;;24.74;35.84;101388.08;5305970;55;1139390;-65
2022/08/07 16:24:20;;;;;;;3.50;1.32;;;;;;;24.79;36.38;101376.15;5300498;55;976365;-64
2022/08/07 16:30:05;;;;;;;2.20;1.52;;;;;;;24.81;36.40;101378.99;5314581;55;1136983;-66
2022/08/07 16:35:27;;;;;;;4.90;1.65;;;;;;;24.79;36.29;101378.34;5304382;55;1139319;-66
2022/08/07 16:41:23;;;;;;;7.60;4.55;;;;;;;24.70;36.56;101375.95;5177290;55;1139066;-66
2022/08/07 16:46:54;;;;;;;4.62;2.95;;;;;;;24.57;36.71;101373.09;5351333;54;1139025;-66
2022/08/07 16:52:25;;;;;;;13.30;8.05;;;;;;;24.51;37.15;101366.05;5308665;55;1136945;-66
2022/08/07 16:57:50;;;;;;;5.22;4.22;;;;;;;24.61;37.45;101360.84;5311765;54;1139069;-65
2022/08/07 17:03:09;;;;;;;4.08;1.98;;;;;;;24.75;37.56;101362.16;5319897;54;1137193;-64
2022/08/07 17:08:37;;;;;;;2.62;1.30;;;;;;;24.88;37.09;101349.31;5285538;55;1136936;-66
2022/08/07 17:14:11;;;;;;;1.10;1.10;;;;;;;24.90;36.35;101357.53;5249471;55;1138944;-64
2022/08/07 17:19:42;;;;;;;1.77;1.20;;;;;;;24.79;34.80;101349.93;5295684;55;1139249;-64
2022/08/07 17:25:16;;;;;;;6.15;2.12;;;;;;;24.79;34.80;101349.93;5295490;55;1139005;-66
2022/08/07 17:30:24;;;;;;;5.00;1.37;;;;;;;24.78;35.59;101360.42;5265839;55;1139394;-65
2022/08/07 17:35:54;;;;;;;5.67;2.33;;;;;;;24.70;36.29;101357.86;5291653;55;1139155;-64
2022/08/07 17:41:10;;;;;;;6.50;2.05;;;;;;;24.58;35.79;101359.38;5272190;55;1139460;-65
2022/08/07 17:46:39;;;;;;;9.60;1.95;;;;;;;24.48;35.79;101360.17;5285147;55;1139078;-65
2022/08/07 17:52:03;;;;;;;7.03;1.47;;;;;;;24.34;36.25;101363.23;5234100;56;1139012;-63
2022/08/07 17:57:20;;;;;;;25.08;2.30;;;;;;;24.28;36.55;101380.73;5313106;55;1136945;-65
2022/08/07 18:02:58;;;;;;;4.47;1.70;;;;;;;24.14;36.86;101376.44;5352097;54;1138988;-64
2022/08/07 18:08:20;;;;;;;12.45;2.47;;;;;;;24.02;37.25;101379.80;5326239;54;1137057;-66
2022/08/07 18:13:42;;;;;;;11.57;3.77;;;;;;;23.82;37.69;101381.72;5231958;55;1139074;-63
2022/08/07 18:18:51;;;;;;;9.98;3.15;;;;;;;23.70;38.08;101380.98;5308541;55;1141095;-66
2022/08/07 18:24:26;;;;;;;57.60;7.53;;;;;;;23.51;38.39;101389.11;5251067;55;1139343;-67
2022/08/07 18:29:47;;;;;;;38.23;6.30;;;;;;;23.43;39.46;101387.27;5349607;54;1141025;-65
2022/08/07 18:35:24;;;;;;;21.45;2.42;;;;;;;23.34;40.16;101393.77;5340661;55;1140302;-64
2022/08/07 18:41:07;;;;;;;55.88;5.83;;;;;;;23.12;41.33;101392.73;5423558;54;1141077;-65
2022/08/07 18:46:26;;;;;;;47.17;6.23;;;;;;;23.12;41.33;101392.73;5241193;56;1141111;-65
2022/08/07 18:51:42;;;;;;;40.25;4.85;;;;;;;23.08;41.26;101406.77;5330618;54;1141090;-66
2022/08/07 18:56:56;;;;;;;23.38;5.10;;;;;;;22.91;41.16;101407.41;5324843;54;1141101;-64
2022/08/07 19:02:16;;;;;;;40.07;5.10;;;;;;;22.70;41.97;101410.67;5250141;55;1141029;-64
2022/08/07 19:07:29;;;;;;;32.83;5.28;;;;;;;22.61;42.01;101413.06;5289208;54;1139190;-64
2022/08/07 19:12:58;;;;;;;50.63;8.35;;;;;;;22.52;42.70;101423.56;5237285;55;1139161;-65
2022/08/07 19:18:42;;;;;;;26.70;5.50;;;;;;;22.35;43.63;101425.48;5284197;55;1139089;-64
2022/08/07 19:23:53;;;;;;;36.03;4.60;;;;;;;22.23;44.33;101434.95;5187095;54;1137062;-65
2022/08/07 19:29:02;;;;;;;45.00;6.08;;;;;;;22.13;44.60;101430.78;5363043;54;1141051;-65
2022/08/07 19:34:10;;;;;;;15.70;3.27;;;;;;;21.98;44.75;101435.48;5412529;54;1141045;-63
2022/08/07 19:39:20;;;;;;;44.63;5.13;;;;;;;21.80;45.39;101436.18;5346477;54;1141143;-64
2022/08/07 19:44:40;;;;;;;36.13;5.60;;;;;;;21.62;45.96;101443.09;5378723;54;1141137;-64
2022/08/07 19:49:52;;;;;;;32.38;4.45;;;;;;;21.56;46.54;101438.86;5195902;56;1141393;-65
2022/08/07 19:54:58;;;;;;;42.78;7.15;;;;;;;21.50;46.72;101442.25;5249189;55;1141263;-65
2022/08/07 20:00:08;;;;;;;52.58;7.70;;;;;;;21.35;47.02;101443.41;5187629;55;1141208;-63
2022/08/07 20:05:19;;;;;;;26.10;6.20;;;;;;;21.14;47.57;101452.41;5322614;54;1141372;-66
2022/08/07 20:10:38;;;;;;;27.40;5.78;;;;;;;21.06;48.15;101454.09;5287082;55;1141301;-65
2022/08/07 20:15:45;;;;;;;14.13;3.27;;;;;;;20.97;48.59;101459.09;5267696;55;1141088;-64
2022/08/07 20:20:54;;;;;;;11.35;3.33;;;;;;;20.81;48.91;101456.85;5283320;55;1141130;-64
2022/08/07 20:26:06;;;;;;;18.87;4.50;;;;;;;20.68;49.11;101459.50;5182296;56;1141217;-66
2022/08/07 20:31:13;;;;;;;;;;;;;;;20.55;49.41;101466.33;5392230;54;1141479;-64
2022/08/07 20:36:20;;;;;;;10.98;2.30;;;;;;;20.43;49.73;101472.50;5376652;54;976517;-64
2022/08/07 20:41:29;;;;;;;6.45;3.15;;;;;;;20.29;49.78;101470.37;5247655;55;1138973;-65
2022/08/07 20:46:36;;;;;;;8.10;3.33;;;;;;;20.08;50.42;101468.04;5277634;55;1139259;-64
2022/08/07 20:51:44;;;;;;;9.33;2.75;;;;;;;20.01;51.03;101462.44;5276986;55;1139149;-65
2022/08/07 20:56:52;;;;;;;6.85;3.25;;;;;;;19.88;51.68;101465.20;5321602;55;1138988;-64
2022/08/07 21:02:00;;;;;;;4.45;2.10;;;;;;;19.70;52.13;101466.59;5321874;55;1138893;-64
2022/08/07 21:07:06;;;;;;;7.47;2.00;;;;;;;19.56;52.37;101466.62;5321355;55;1139017;-63
2022/08/07 21:12:12;;;;;;;7.95;3.00;;;;;;;19.52;53.18;101472.47;5319646;55;1138770;-65
2022/08/07 21:17:23;;;;;;;9.25;4.00;;;;;;;19.44;53.65;101468.31;5318888;55;1139310;-63
2022/08/07 21:22:30;;;;;;;7.55;3.98;;;;;;;19.28;53.79;101467.66;5318529;55;1139025;-65
2022/08/07 21:27:52;;;;;;;5.83;4.05;;;;;;;19.18;54.08;101461.03;5318508;55;1139210;-64
2022/08/07 21:33:26;;;;;;;10.08;3.10;;;;;;;19.16;54.29;101463.52;5318755;55;1137052;-66
2022/08/07 21:38:54;;;;;;;4.22;3.25;;;;;;;19.13;54.44;101470.02;5338633;54;1138944;-65
2022/08/07 21:44:24;;;;;;;8.05;3.72;;;;;;;19.12;54.41;101474.19;5384726;55;1136889;-64
2022/08/07 21:49:49;;;;;;;8.13;3.50;;;;;;;19.00;54.78;101468.70;5388778;54;1139090;-64
2022/08/07 21:55:20;;;;;;;9.95;6.08;;;;;;;18.85;55.07;101473.73;5387259;55;1138868;-64
2022/08/07 22:00:27;;;;;;;15.23;8.98;;;;;;;18.80;55.87;101475.50;5381373;54;1139262;-64
2022/08/07 22:05:41;;;;;;;10.65;5.67;;;;;;;18.34;56.30;101480.87;5392291;55;1141126;-64
2022/08/07 22:10:56;;;;;;;9.70;4.37;;;;;;;18.08;56.96;101474.83;5369222;54;1141196;-63
2022/08/07 22:16:11;;;;;;;8.35;4.78;;;;;;;18.02;57.16;101482.61;5392172;55;1139027;-63
2022/08/07 22:21:30;;;;;;;9.10;5.47;;;;;;;18.03;57.07;101486.94;5392545;54;1138670;-65
2022/08/07 22:26:42;;;;;;;19.42;4.35;;;;;;;17.92;57.46;101495.49;5385382;54;1138957;-64
2022/08/07 22:32:20;;;;;;;7.83;3.30;;;;;;;17.98;57.69;101499.44;5389218;55;1141057;-64
2022/08/07 22:37:49;;;;;;;11.15;3.77;;;;;;;17.93;57.52;101497.19;5392089;55;1139243;-63
2022/08/07 22:43:00;;;;;;;4.90;2.90;;;;;;;17.85;57.54;101500.23;5317210;55;1139084;-63
2022/08/07 22:48:09;;;;;;;5.65;3.35;;;;;;;17.82;57.83;101501.36;5316933;55;1137217;-65
2022/08/07 22:54:01;;;;;;;7.42;3.52;;;;;;;17.56;58.15;101510.91;5317422;55;1136951;-63
2022/08/07 22:59:17;;;;;;;68.80;42.53;;;;;;;17.30;58.88;101507.06;5317408;55;1137096;-65
2022/08/07 23:04:48;;;;;;;58.73;39.88;;;;;;;17.20;60.18;101509.73;5317073;55;1140726;-64
2022/08/07 23:10:07;;;;;;;20.63;11.37;;;;;;;17.29;60.70;101502.69;5317377;55;1143251;-63
2022/08/07 23:15:56;;;;;;;13.54;5.52;;;;;;;17.19;60.03;101504.87;5316904;55;1143207;-63
2022/08/07 23:21:22;;;;;;;40.58;25.43;;;;;;;17.19;59.95;101506.20;5290352;55;1141223;-63
2022/08/07 23:26:53;;;;;;;23.22;9.68;;;;;;;17.19;59.94;101504.87;5212590;56;1143178;-64
2022/08/07 23:32:15;;;;;;;17.85;8.45;;;;;;;17.25;59.84;101505.31;5290819;55;1140724;-64
2022/08/07 23:38:01;;;;;;;16.70;7.43;;;;;;;17.21;59.51;101502.06;5317401;55;1140982;-64
2022/08/07 23:43:45;;;;;;;21.10;8.17;;;;;;;17.22;59.14;101506.43;5371594;54;1139082;-65
2022/08/07 23:49:27;;;;;;;21.20;10.00;;;;;;;17.19;59.23;101501.34;5425202;54;1139169;-64
2022/08/07 23:55:01;;;;;;;22.32;9.10;;;;;;;17.18;59.12;101499.17;5251468;56;1141077;-63
